Time;durP1;ratioP1;P1;durP2;ratioP2;P2;SDS_P1;SDS_P2;PMS_P1;PMS_P2;Temp;Humidity;BMP_temperature;BMP_pressure;BME280_temperature;BME280_humidity;BME280_pressure;Samples;Min_cycle;Max_cycle;Signal;HPM_P1;HPM_P2
2022/04/11 00:02:05;;;;;;;52.20;22.83;;;;;;;;;;4992458;28;20038;-37
2022/04/11 00:04:32;;;;;;;38.33;21.45;;;;;;;;;;4991789;28;20022;-36
2022/04/11 00:06:59;;;;;;;43.90;20.38;;;;;;;;;;4991201;28;20485;-36
2022/04/11 00:09:26;;;;;;;39.78;19.52;;;;;;;;;;4990919;28;20038;-36
2022/04/11 00:11:53;;;;;;;38.42;18.67;;;;;;;;;;4992584;28;20104;-36
2022/04/11 00:14:20;;;;;;;35.45;17.63;;;;;;;;;;4992416;28;20022;-36
2022/04/11 00:16:47;;;;;;;35.15;17.33;;;;;;;;;;4991881;28;20070;-35
2022/04/11 00:19:14;;;;;;;36.38;17.42;;;;;;;;;;4992176;28;20023;-35
2022/04/11 00:21:41;;;;;;;34.22;16.13;;;;;;;;;;4990725;28;20108;-35
2022/04/11 00:24:08;;;;;;;36.95;16.48;;;;;;;;;;4992384;28;20026;-36
2022/04/11 00:26:36;;;;;;;35.47;15.25;;;;;;;;;;4992110;28;20281;-36
2022/04/11 00:29:03;;;;;;;31.83;14.50;;;;;;;;;;4991158;28;20046;-35
2022/04/11 00:31:30;;;;;;;28.90;14.00;;;;;;;;;;4992730;28;20026;-35
2022/04/11 00:33:57;;;;;;;24.52;13.68;;;;;;;;;;4991926;28;20113;-36
2022/04/11 00:36:24;;;;;;;31.35;14.18;;;;;;;;;;4992151;28;20027;-35
2022/04/11 00:38:51;;;;;;;28.05;12.95;;;;;;;;;;4991943;28;20444;-36
2022/04/11 00:41:18;;;;;;;29.20;13.45;;;;;;;;;;4992156;28;20026;-36
2022/04/11 00:43:45;;;;;;;27.10;13.52;;;;;;;;;;4991257;28;20106;-35
2022/04/11 00:46:12;;;;;;;25.52;12.07;;;;;;;;;;4991237;28;20510;-36
2022/04/11 00:48:40;;;;;;;25.08;12.00;;;;;;;;;;4991458;28;20022;-36
2022/04/11 00:51:08;;;;;;;27.10;12.45;;;;;;;;;;4990251;28;20042;-36
2022/04/11 00:53:38;;;;;;;29.27;11.57;;;;;;;;;;4991984;28;20440;-36
2022/04/11 00:56:05;;;;;;;25.23;12.15;;;;;;;;;;4988910;28;20547;-35
2022/04/11 00:58:32;;;;;;;22.48;11.43;;;;;;;;;;4991540;28;20026;-35
2022/04/11 01:00:59;;;;;;;98.78;14.98;;;;;;;;;;4992122;28;20034;-36
2022/04/11 01:03:26;;;;;;;52.88;14.93;;;;;;;;;;4991263;28;20030;-36
2022/04/11 01:05:54;;;;;;;48.55;22.10;;;;;;;;;;4992178;28;20041;-36
2022/04/11 01:08:21;;;;;;;42.20;22.25;;;;;;;;;;4991623;28;20038;-36
2022/04/11 01:10:48;;;;;;;46.63;22.00;;;;;;;;;;4973930;28;20041;-35
2022/04/11 01:13:16;;;;;;;53.85;24.35;;;;;;;;;;4990936;28;20389;-36
2022/04/11 01:15:53;;;;;;;54.92;21.83;;;;;;;;;;4991896;28;20392;-36
2022/04/11 01:18:20;;;;;;;39.60;18.27;;;;;;;;;;4990893;28;20036;-36
2022/04/11 01:20:47;;;;;;;40.97;15.43;;;;;;;;;;4991052;28;20099;-36
2022/04/11 01:23:34;;;;;;;29.95;12.68;;;;;;;;;;4991132;28;20516;-36
2022/04/11 01:26:02;;;;;;;27.50;10.77;;;;;;;;;;4990880;28;20559;-36
2022/04/11 01:28:29;;;;;;;19.23;8.48;;;;;;;;;;4991562;28;20026;-36
2022/04/11 01:30:57;;;;;;;17.20;8.20;;;;;;;;;;4991190;28;20030;-36
2022/04/11 01:33:25;;;;;;;12.00;6.28;;;;;;;;;;4956904;28;20448;-36
2022/04/11 01:35:52;;;;;;;11.52;6.05;;;;;;;;;;4987230;28;20030;-36
2022/04/11 01:38:20;;;;;;;13.10;6.45;;;;;;;;;;4990725;28;20092;-36
2022/04/11 01:40:50;;;;;;;9.32;4.63;;;;;;;;;;4991519;28;20034;-36
2022/04/11 01:43:17;;;;;;;7.88;4.80;;;;;;;;;;4990860;28;20031;-36
2022/04/11 01:45:44;;;;;;;12.35;4.50;;;;;;;;;;4991431;28;20403;-36
2022/04/11 01:48:11;;;;;;;8.15;4.68;;;;;;;;;;4990834;28;20030;-36
2022/04/11 01:50:39;;;;;;;8.82;3.78;;;;;;;;;;4994441;28;20496;-36
2022/04/11 01:53:10;;;;;;;13.00;3.95;;;;;;;;;;4996796;28;20026;-36
2022/04/11 01:55:37;;;;;;;4.28;2.92;;;;;;;;;;4997847;28;20046;-36
2022/04/11 01:58:05;;;;;;;6.32;3.00;;;;;;;;;;4994755;28;20535;-36
2022/04/11 02:00:33;;;;;;;8.70;2.90;;;;;;;;;;4989334;28;20073;-36
2022/04/11 02:03:00;;;;;;;5.20;1.80;;;;;;;;;;4989224;28;20030;-37
2022/04/11 02:05:27;;;;;;;4.13;2.33;;;;;;;;;;4989789;28;20061;-36
2022/04/11 02:07:55;;;;;;;3.47;2.22;;;;;;;;;;4992725;28;20034;-36
2022/04/11 02:10:22;;;;;;;5.88;2.13;;;;;;;;;;4993525;28;20113;-35
2022/04/11 02:12:49;;;;;;;10.68;2.80;;;;;;;;;;4994588;28;20026;-35
2022/04/11 02:15:17;;;;;;;6.65;2.40;;;;;;;;;;4994302;28;20061;-36
2022/04/11 02:17:47;;;;;;;7.68;4.30;;;;;;;;;;4988801;28;20026;-35
2022/04/11 02:20:15;;;;;;;12.02;3.70;;;;;;;;;;4994650;28;20504;-36
2022/04/11 02:22:48;;;;;;;12.45;3.53;;;;;;;;;;4994798;28;20133;-36
2022/04/11 02:25:15;;;;;;;6.68;3.70;;;;;;;;;;4994726;28;20031;-36
2022/04/11 02:27:42;;;;;;;9.50;3.53;;;;;;;;;;4995397;28;20076;-36
2022/04/11 02:30:10;;;;;;;9.35;3.42;;;;;;;;;;4994367;28;20578;-36
2022/04/11 02:32:38;;;;;;;6.72;2.88;;;;;;;;;;4994823;28;20022;-36
2022/04/11 02:35:05;;;;;;;6.72;2.88;;;;;;;;;;4994536;28;20036;-36
2022/04/11 02:37:33;;;;;;;6.97;2.85;;;;;;;;;;4995001;28;20219;-36
2022/04/11 02:40:00;;;;;;;6.38;2.70;;;;;;;;;;4994617;28;20362;-36
2022/04/11 02:42:28;;;;;;;5.65;2.80;;;;;;;;;;4994296;28;20069;-36
2022/04/11 02:44:55;;;;;;;6.00;2.97;;;;;;;;;;4994877;28;20089;-36
2022/04/11 02:47:22;;;;;;;4.38;2.78;;;;;;;;;;4994651;28;20026;-36
2022/04/11 02:49:49;;;;;;;10.68;3.25;;;;;;;;;;4994955;28;20041;-36
2022/04/11 02:52:17;;;;;;;3.45;2.45;;;;;;;;;;4994089;28;20053;-36
2022/04/11 02:54:45;;;;;;;7.30;2.85;;;;;;;;;;4994701;28;20040;-36
2022/04/11 02:57:11;;;;;;;5.57;2.47;;;;;;;;;;4994544;28;20026;-36
2022/04/11 02:59:38;;;;;;;5.65;2.85;;;;;;;;;;4994134;28;20034;-36
2022/04/11 03:02:05;;;;;;;5.68;2.40;;;;;;;;;;4994365;28;20027;-36
2022/04/11 03:04:32;;;;;;;5.15;1.85;;;;;;;;;;4976563;28;20404;-36
2022/04/11 03:06:59;;;;;;;5.47;2.35;;;;;;;;;;4994403;28;20030;-36
2022/04/11 03:09:26;;;;;;;5.15;2.40;;;;;;;;;;4994576;28;20498;-36
2022/04/11 03:11:53;;;;;;;2.45;2.20;;;;;;;;;;4994530;28;20393;-36
2022/04/11 03:14:20;;;;;;;2.60;2.15;;;;;;;;;;4994715;28;20058;-35
2022/04/11 03:16:47;;;;;;;3.97;2.20;;;;;;;;;;4993327;28;20042;-34
2022/04/11 03:19:14;;;;;;;2.30;1.55;;;;;;;;;;4994088;28;20564;-35
2022/04/11 03:21:41;;;;;;;3.22;1.83;;;;;;;;;;4994223;28;20031;-35
2022/04/11 03:24:08;;;;;;;6.10;2.00;;;;;;;;;;4994353;28;20030;-35
2022/04/11 03:26:35;;;;;;;2.28;1.65;;;;;;;;;;4994061;28;20050;-34
2022/04/11 03:29:02;;;;;;;2.40;1.80;;;;;;;;;;4994297;28;20050;-34
2022/04/11 03:31:29;;;;;;;2.95;1.40;;;;;;;;;;4993982;28;20089;-34
2022/04/11 03:33:56;;;;;;;1.88;1.40;;;;;;;;;;4993909;28;20050;-34
2022/04/11 03:36:24;;;;;;;1.75;1.55;;;;;;;;;;4993776;28;20101;-35
2022/04/11 03:38:51;;;;;;;3.20;1.60;;;;;;;;;;4993759;28;20113;-35
2022/04/11 03:41:18;;;;;;;3.03;1.83;;;;;;;;;;4993965;28;20109;-35
2022/04/11 03:43:45;;;;;;;3.28;1.52;;;;;;;;;;4993848;28;20027;-35
2022/04/11 03:46:12;;;;;;;2.75;1.55;;;;;;;;;;4993653;28;20034;-35
2022/04/11 03:48:39;;;;;;;1.70;1.40;;;;;;;;;;4993387;28;20061;-34
2022/04/11 03:51:06;;;;;;;4.97;1.83;;;;;;;;;;4993793;28;20026;-35
2022/04/11 03:53:33;;;;;;;2.10;1.30;;;;;;;;;;4993449;28;20109;-34
2022/04/11 03:56:00;;;;;;;3.00;1.35;;;;;;;;;;4993455;28;20544;-34
2022/04/11 03:58:27;;;;;;;3.50;1.40;;;;;;;;;;4993521;28;20484;-34
2022/04/11 04:00:54;;;;;;;1.77;1.15;;;;;;;;;;4993654;28;20031;-35
2022/04/11 04:03:21;;;;;;;3.67;1.20;;;;;;;;;;4993341;28;20035;-34
2022/04/11 04:05:48;;;;;;;2.10;1.17;;;;;;;;;;4993559;28;20555;-34
2022/04/11 04:08:18;;;;;;;2.45;1.13;;;;;;;;;;4993051;28;20034;-35
2022/04/11 04:10:45;;;;;;;1.60;0.95;;;;;;;;;;4993458;28;20037;-36
2022/04/11 04:13:12;;;;;;;1.73;1.27;;;;;;;;;;4993222;28;20022;-36
2022/04/11 04:15:39;;;;;;;2.08;1.42;;;;;;;;;;4993181;28;20393;-35
2022/04/11 04:18:06;;;;;;;1.27;1.00;;;;;;;;;;4993679;28;20109;-36
2022/04/11 04:20:34;;;;;;;2.53;1.00;;;;;;;;;;4993199;28;20023;-35
2022/04/11 04:23:00;;;;;;;2.15;1.05;;;;;;;;;;4992784;28;20034;-36
2022/04/11 04:25:27;;;;;;;1.80;1.20;;;;;;;;;;4993321;28;20030;-35
2022/04/11 04:27:54;;;;;;;1.83;1.30;;;;;;;;;;4992430;28;20041;-36
2022/04/11 04:30:21;;;;;;;2.33;1.23;;;;;;;;;;4992490;28;20504;-36
2022/04/11 04:32:48;;;;;;;1.48;1.17;;;;;;;;;;4993094;28;20153;-36
2022/04/11 04:35:16;;;;;;;1.17;1.10;;;;;;;;;;4992798;28;20037;-35
2022/04/11 04:37:43;;;;;;;1.15;1.00;;;;;;;;;;4992198;28;20040;-35
2022/04/11 04:40:10;;;;;;;2.63;1.20;;;;;;;;;;4993271;28;20022;-36
2022/04/11 04:42:38;;;;;;;0.90;0.90;;;;;;;;;;4992742;28;20030;-36
2022/04/11 04:45:06;;;;;;;2.45;1.27;;;;;;;;;;4992934;28;20038;-36
2022/04/11 04:47:33;;;;;;;1.20;0.95;;;;;;;;;;4991461;28;20046;-36
2022/04/11 04:50:00;;;;;;;1.80;0.68;;;;;;;;;;4993126;28;20061;-36
2022/04/11 04:52:27;;;;;;;1.60;0.93;;;;;;;;;;4992539;28;20492;-35
2022/04/11 04:54:54;;;;;;;2.72;1.20;;;;;;;;;;4992647;28;20031;-36
2022/04/11 04:57:21;;;;;;;1.23;0.98;;;;;;;;;;4992599;28;20125;-36
2022/04/11 04:59:48;;;;;;;1.58;0.85;;;;;;;;;;4992263;28;20044;-35
2022/04/11 05:02:15;;;;;;;1.52;0.85;;;;;;;;;;4992991;28;20026;-36
2022/04/11 05:04:42;;;;;;;1.40;0.90;;;;;;;;;;4992632;28;20030;-36
2022/04/11 05:07:09;;;;;;;1.02;0.73;;;;;;;;;;4992396;28;20126;-36
2022/04/11 05:09:35;;;;;;;1.23;0.70;;;;;;;;;;4992636;28;20030;-36
2022/04/11 05:12:02;;;;;;;2.28;0.77;;;;;;;;;;4991956;28;20018;-36
2022/04/11 05:14:29;;;;;;;1.17;0.65;;;;;;;;;;4992781;28;20029;-36
2022/04/11 05:16:56;;;;;;;1.67;1.00;;;;;;;;;;4992315;28;20085;-36
2022/04/11 05:19:23;;;;;;;0.40;0.22;;;;;;;;;;4992019;28;20022;-36
2022/04/11 05:21:50;;;;;;;2.25;0.40;;;;;;;;;;4992614;28;20026;-36
2022/04/11 05:24:17;;;;;;;0.98;0.98;;;;;;;;;;4992387;28;20037;-36
2022/04/11 05:26:44;;;;;;;0.82;0.65;;;;;;;;;;4992208;28;20038;-36
2022/04/11 05:29:11;;;;;;;0.88;0.80;;;;;;;;;;4992332;28;20043;-36
2022/04/11 05:31:38;;;;;;;1.27;0.90;;;;;;;;;;4992213;28;20038;-36
2022/04/11 05:34:05;;;;;;;1.60;1.00;;;;;;;;;;4992132;28;20097;-36
2022/04/11 05:36:32;;;;;;;4.22;0.80;;;;;;;;;;4991725;28;20093;-35
2022/04/11 05:38:59;;;;;;;2.80;0.90;;;;;;;;;;4991567;28;20035;-35
2022/04/11 05:41:27;;;;;;;1.73;0.77;;;;;;;;;;4994267;28;20030;-35
2022/04/11 05:43:53;;;;;;;0.80;0.68;;;;;;;;;;4995815;28;20026;-35
2022/04/11 05:46:20;;;;;;;2.67;1.00;;;;;;;;;;4996427;28;20034;-36
2022/04/11 05:48:47;;;;;;;3.22;0.70;;;;;;;;;;4995727;28;20042;-36
2022/04/11 05:51:14;;;;;;;0.75;0.75;;;;;;;;;;4996055;28;20409;-35
2022/04/11 05:53:41;;;;;;;0.70;0.70;;;;;;;;;;4995838;28;20483;-36
2022/04/11 05:56:08;;;;;;;0.73;0.73;;;;;;;;;;4996332;28;20036;-36
2022/04/11 05:58:35;;;;;;;1.17;0.73;;;;;;;;;;4995505;28;20136;-36
2022/04/11 06:01:02;;;;;;;0.80;0.80;;;;;;;;;;4996288;28;20030;-36
2022/04/11 06:03:29;;;;;;;0.93;0.70;;;;;;;;;;4995912;28;20026;-36
2022/04/11 06:05:56;;;;;;;1.40;0.68;;;;;;;;;;4995812;28;20034;-36
2022/04/11 06:08:23;;;;;;;1.50;0.70;;;;;;;;;;4996201;28;20027;-35
2022/04/11 06:10:50;;;;;;;0.30;0.20;;;;;;;;;;4995416;28;20118;-36
2022/04/11 06:13:17;;;;;;;0.30;0.17;;;;;;;;;;4996024;28;20022;-35
2022/04/11 06:15:44;;;;;;;0.80;0.20;;;;;;;;;;4995771;28;20037;-35
2022/04/11 06:18:11;;;;;;;1.33;0.30;;;;;;;;;;4995573;28;20069;-35
2022/04/11 06:20:38;;;;;;;1.30;0.40;;;;;;;;;;4987544;28;20505;-35
2022/04/11 06:23:05;;;;;;;1.00;0.20;;;;;;;;;;4995896;28;20110;-36
2022/04/11 06:25:31;;;;;;;0.35;0.22;;;;;;;;;;4994971;28;20038;-36
2022/04/11 06:27:58;;;;;;;1.55;0.88;;;;;;;;;;4990757;28;20113;-34
2022/04/11 06:30:25;;;;;;;3.97;0.70;;;;;;;;;;4980411;28;20080;-35
2022/04/11 06:32:52;;;;;;;2.05;1.05;;;;;;;;;;4974666;28;20038;-35
2022/04/11 06:35:19;;;;;;;0.93;0.35;;;;;;;;;;4973686;28;20023;-34
2022/04/11 06:37:47;;;;;;;1.38;0.88;;;;;;;;;;4975782;28;20027;-34
2022/04/11 06:40:14;;;;;;;1.25;0.90;;;;;;;;;;4975819;28;20035;-34
2022/04/11 06:42:41;;;;;;;2.25;1.20;;;;;;;;;;4975192;28;20026;-34
2022/04/11 06:45:09;;;;;;;0.88;0.82;;;;;;;;;;4976169;28;20492;-34
2022/04/11 06:47:35;;;;;;;1.10;0.60;;;;;;;;;;4975609;28;20027;-34
2022/04/11 06:50:02;;;;;;;1.52;0.68;;;;;;;;;;4975637;28;20126;-34
2022/04/11 06:52:29;;;;;;;1.30;1.20;;;;;;;;;;4975439;28;20034;-34
2022/04/11 06:54:56;;;;;;;1.25;0.63;;;;;;;;;;4975551;28;20035;-34
2022/04/11 06:57:24;;;;;;;1.10;0.77;;;;;;;;;;4975282;28;20039;-35
2022/04/11 06:59:51;;;;;;;2.00;0.77;;;;;;;;;;4975905;28;20556;-34
2022/04/11 07:02:19;;;;;;;0.93;0.75;;;;;;;;;;4975258;28;20031;-34
2022/04/11 07:04:46;;;;;;;1.90;0.80;;;;;;;;;;4975473;28;20485;-34
2022/04/11 07:07:13;;;;;;;0.70;0.70;;;;;;;;;;4975309;28;20031;-34
2022/04/11 07:09:40;;;;;;;0.98;0.65;;;;;;;;;;4957959;28;20121;-35
2022/04/11 07:12:07;;;;;;;1.88;0.52;;;;;;;;;;4975237;28;20397;-34
2022/04/11 07:14:34;;;;;;;2.70;0.68;;;;;;;;;;4975468;28;20111;-34
2022/04/11 07:17:01;;;;;;;0.85;0.50;;;;;;;;;;4974517;28;20066;-34
2022/04/11 07:19:28;;;;;;;0.50;0.50;;;;;;;;;;4975596;28;20117;-34
2022/04/11 07:21:55;;;;;;;1.15;0.70;;;;;;;;;;4974921;28;20030;-35
2022/04/11 07:24:23;;;;;;;0.50;0.50;;;;;;;;;;4975151;28;20027;-34
2022/04/11 07:26:50;;;;;;;1.30;0.70;;;;;;;;;;4975297;28;20035;-34
2022/04/11 07:29:17;;;;;;;1.27;0.52;;;;;;;;;;4974445;28;20051;-34
2022/04/11 07:31:44;;;;;;;2.17;0.60;;;;;;;;;;4974748;28;20035;-35
2022/04/11 07:34:11;;;;;;;1.52;0.80;;;;;;;;;;4974839;28;20106;-34
2022/04/11 07:36:38;;;;;;;2.40;0.88;;;;;;;;;;4966031;28;20059;-35
2022/04/11 07:39:05;;;;;;;0.50;0.50;;;;;;;;;;4957482;28;20042;-35
2022/04/11 07:41:32;;;;;;;0.90;0.65;;;;;;;;;;4974156;28;20065;-35
2022/04/11 07:43:58;;;;;;;1.85;0.70;;;;;;;;;;4974911;28;20489;-34
2022/04/11 07:46:25;;;;;;;1.50;0.60;;;;;;;;;;4974705;28;20027;-35
2022/04/11 07:48:53;;;;;;;0.82;0.80;;;;;;;;;;4974058;28;20371;-35
2022/04/11 07:51:20;;;;;;;1.35;0.63;;;;;;;;;;4974318;28;20042;-34
2022/04/11 07:53:47;;;;;;;1.15;0.60;;;;;;;;;;4974432;28;20073;-34
2022/04/11 07:56:14;;;;;;;1.00;0.60;;;;;;;;;;4974123;28;20536;-35
2022/04/11 07:58:41;;;;;;;0.60;0.40;;;;;;;;;;4974657;28;20089;-35
2022/04/11 08:01:10;;;;;;;2.92;0.80;;;;;;;;;;4974001;28;20131;-35
2022/04/11 08:03:37;;;;;;;0.70;0.40;;;;;;;;;;4973837;28;20031;-34
2022/04/11 08:06:04;;;;;;;0.70;0.55;;;;;;;;;;4974304;28;20092;-34
2022/04/11 08:08:31;;;;;;;2.85;0.73;;;;;;;;;;4974080;28;20088;-35
2022/04/11 08:10:58;;;;;;;0.60;0.60;;;;;;;;;;4974607;28;20054;-34
2022/04/11 08:13:25;;;;;;;2.47;0.55;;;;;;;;;;4974286;28;20393;-34
2022/04/11 08:15:52;;;;;;;1.52;0.70;;;;;;;;;;4974207;28;20035;-34
2022/04/11 08:18:19;;;;;;;0.98;0.43;;;;;;;;;;4974020;28;20034;-34
2022/04/11 08:20:46;;;;;;;1.63;0.60;;;;;;;;;;4974034;28;20560;-34
2022/04/11 08:23:13;;;;;;;1.00;0.40;;;;;;;;;;4974069;28;20409;-34
2022/04/11 08:25:40;;;;;;;0.63;0.43;;;;;;;;;;4974012;28;20041;-34
2022/04/11 08:28:07;;;;;;;0.43;0.43;;;;;;;;;;4973530;28;20034;-34
2022/04/11 08:30:33;;;;;;;1.10;0.50;;;;;;;;;;4973947;28;20054;-34
2022/04/11 08:33:00;;;;;;;0.80;0.40;;;;;;;;;;4973339;28;20085;-34
2022/04/11 08:35:27;;;;;;;1.50;0.50;;;;;;;;;;4974021;28;20114;-34
2022/04/11 08:37:54;;;;;;;0.95;0.50;;;;;;;;;;4973335;28;20030;-34
2022/04/11 08:40:21;;;;;;;1.20;0.47;;;;;;;;;;4973809;28;20041;-34
2022/04/11 08:42:49;;;;;;;1.77;0.40;;;;;;;;;;4973018;28;20788;-34
2022/04/11 08:45:17;;;;;;;1.58;0.52;;;;;;;;;;4974151;28;20031;-34
2022/04/11 08:47:44;;;;;;;1.08;0.40;;;;;;;;;;4973487;28;20019;-34
2022/04/11 08:50:11;;;;;;;0.90;0.38;;;;;;;;;;4973400;28;20511;-34
2022/04/11 08:52:39;;;;;;;0.77;0.40;;;;;;;;;;4973935;28;20053;-34
2022/04/11 08:55:06;;;;;;;1.73;0.80;;;;;;;;;;4973019;28;20042;-35
2022/04/11 08:57:33;;;;;;;0.98;0.43;;;;;;;;;;4973686;28;20034;-34
2022/04/11 09:00:09;;;;;;;0.70;0.43;;;;;;;;;;4973350;28;20030;-34
2022/04/11 09:02:37;;;;;;;1.00;0.40;;;;;;;;;;4973331;28;20038;-34
2022/04/11 09:05:04;;;;;;;0.60;0.40;;;;;;;;;;4973591;28;20038;-34
2022/04/11 09:07:48;;;;;;;0.30;0.30;;;;;;;;;;4972809;28;20412;-34
2022/04/11 09:10:36;;;;;;;1.85;0.40;;;;;;;;;;4973153;28;20023;-34
2022/04/11 09:13:04;;;;;;;0.45;0.40;;;;;;;;;;4972984;28;20031;-35
2022/04/11 09:15:39;;;;;;;1.33;0.50;;;;;;;;;;4966712;28;20443;-34
2022/04/11 09:21:16;;;;;;;0.93;0.40;;;;;;;;;;4954560;29;20501;-36
2022/04/11 09:23:44;;;;;;;0.82;0.50;;;;;;;;;;4953663;29;20119;-34
2022/04/11 09:26:17;;;;;;;0.75;0.35;;;;;;;;;;4953518;29;20024;-35
2022/04/11 09:28:44;;;;;;;0.63;0.50;;;;;;;;;;4952741;29;20062;-34
2022/04/11 09:31:11;;;;;;;0.40;0.40;;;;;;;;;;4954062;29;20038;-34
2022/04/11 09:33:39;;;;;;;1.02;0.40;;;;;;;;;;4953613;29;20036;-34
2022/04/11 09:36:06;;;;;;;0.40;0.40;;;;;;;;;;4953529;29;20036;-34
2022/04/11 09:38:39;;;;;;;0.73;0.50;;;;;;;;;;4953822;29;20046;-34
2022/04/11 09:41:06;;;;;;;0.40;0.40;;;;;;;;;;4952784;29;20042;-34
2022/04/11 09:43:34;;;;;;;0.40;0.38;;;;;;;;;;4953663;29;20031;-34
2022/04/11 09:46:03;;;;;;;1.00;0.50;;;;;;;;;;4953434;29;20043;-34
2022/04/11 09:48:32;;;;;;;1.67;0.55;;;;;;;;;;4953493;29;20027;-34
2022/04/11 09:51:00;;;;;;;0.52;0.47;;;;;;;;;;4952947;29;20751;-34
2022/04/11 09:53:34;;;;;;;0.68;0.40;;;;;;;;;;4936425;29;20371;-34
2022/04/11 09:56:08;;;;;;;0.50;0.38;;;;;;;;;;4953135;29;20035;-34
2022/04/11 09:58:36;;;;;;;3.00;0.60;;;;;;;;;;4953308;29;20062;-34
2022/04/11 10:01:04;;;;;;;0.70;0.40;;;;;;;;;;4953212;29;20035;-34
2022/04/11 10:03:32;;;;;;;3.13;0.50;;;;;;;;;;4953161;29;20050;-34
2022/04/11 10:05:59;;;;;;;0.45;0.45;;;;;;;;;;4953150;29;20167;-34
2022/04/11 10:08:26;;;;;;;2.95;0.65;;;;;;;;;;4953192;29;20028;-34
2022/04/11 10:10:54;;;;;;;2.40;0.80;;;;;;;;;;4953447;29;20031;-34
2022/04/11 10:13:22;;;;;;;1.50;0.60;;;;;;;;;;4953086;29;20035;-34
2022/04/11 10:15:49;;;;;;;1.83;0.50;;;;;;;;;;4953215;29;20441;-34
2022/04/11 10:18:21;;;;;;;0.70;0.52;;;;;;;;;;4953275;29;20035;-34
2022/04/11 10:20:50;;;;;;;0.60;0.60;;;;;;;;;;4952906;29;20038;-34
2022/04/11 10:23:23;;;;;;;0.88;0.60;;;;;;;;;;4953236;29;20028;-35
2022/04/11 10:25:51;;;;;;;0.70;0.45;;;;;;;;;;4953100;28;20031;-34
2022/04/11 10:28:19;;;;;;;0.95;0.50;;;;;;;;;;4938590;29;20034;-34
2022/04/11 10:31:03;;;;;;;2.05;0.50;;;;;;;;;;4956672;29;20039;-34
2022/04/11 10:33:47;;;;;;;1.23;0.43;;;;;;;;;;4956521;29;20043;-34
2022/04/11 10:36:30;;;;;;;0.88;0.20;;;;;;;;;;4956715;29;20023;-34
2022/04/11 10:39:15;;;;;;;0.73;0.20;;;;;;;;;;4956089;29;20042;-35
2022/04/11 10:42:09;;;;;;;0.75;0.30;;;;;;;;;;4956250;29;20027;-36
2022/04/11 10:44:40;;;;;;;0.98;0.40;;;;;;;;;;4954877;29;20046;-36
2022/04/11 10:47:11;;;;;;;0.77;0.40;;;;;;;;;;4939157;29;20043;-35
2022/04/11 10:49:50;;;;;;;1.85;0.50;;;;;;;;;;4956084;29;20086;-35
2022/04/11 10:52:31;;;;;;;0.52;0.38;;;;;;;;;;4956311;29;20023;-35
2022/04/11 10:55:05;;;;;;;0.40;0.20;;;;;;;;;;4956266;29;20054;-35
2022/04/11 10:57:33;;;;;;;0.73;0.35;;;;;;;;;;4956402;29;20035;-35
2022/04/11 11:00:06;;;;;;;0.60;0.32;;;;;;;;;;4955880;29;20030;-35
2022/04/11 11:05:25;;;;;;;0.47;0.40;;;;;;;;;;4956533;29;20031;-36
2022/04/11 11:08:10;;;;;;;1.15;0.30;;;;;;;;;;4955796;29;20027;-35
2022/04/11 11:10:44;;;;;;;0.35;0.30;;;;;;;;;;4955767;29;20093;-35
2022/04/11 11:13:43;;;;;;;2.50;0.52;;;;;;;;;;4956039;29;20055;-35
2022/04/11 11:16:10;;;;;;;0.75;0.40;;;;;;;;;;4943462;29;20066;-36
2022/04/11 11:18:52;;;;;;;0.40;0.40;;;;;;;;;;4955622;29;20102;-35
2022/04/11 11:21:20;;;;;;;1.35;0.40;;;;;;;;;;4955697;29;20082;-35
2022/04/11 11:24:10;;;;;;;0.60;0.40;;;;;;;;;;4955101;29;20442;-35
2022/04/11 11:26:51;;;;;;;1.52;0.88;;;;;;;;;;4955728;29;20069;-35
2022/04/11 11:29:31;;;;;;;1.40;0.68;;;;;;;;;;4955195;28;20051;-35
2022/04/11 11:31:59;;;;;;;1.98;1.10;;;;;;;;;;4955964;29;20027;-35
2022/04/11 11:34:27;;;;;;;2.85;0.70;;;;;;;;;;4954276;29;20027;-35
2022/04/11 11:37:02;;;;;;;1.52;0.75;;;;;;;;;;4955441;29;20046;-34
2022/04/11 11:39:29;;;;;;;1.67;0.70;;;;;;;;;;4954314;28;20078;-34
2022/04/11 11:42:02;;;;;;;3.15;0.93;;;;;;;;;;4954999;29;20486;-34
2022/04/11 11:44:30;;;;;;;2.78;0.75;;;;;;;;;;4955681;29;20104;-34
2022/04/11 11:46:59;;;;;;;5.78;0.90;;;;;;;;;;4954232;29;20086;-34
2022/04/11 11:49:26;;;;;;;7.20;1.15;;;;;;;;;;4966205;28;20023;-34
2022/04/11 11:51:54;;;;;;;5.38;1.17;;;;;;;;;;4974140;28;20560;-35
2022/04/11 11:54:34;;;;;;;7.75;1.30;;;;;;;;;;4974068;28;20026;-35
2022/04/11 11:57:02;;;;;;;9.77;1.55;;;;;;;;;;4973942;28;20030;-35
2022/04/11 11:59:29;;;;;;;7.82;1.30;;;;;;;;;;4974141;28;20405;-35
2022/04/11 12:04:41;;;;;;;4.45;1.17;;;;;;;;;;4974121;28;20037;-35
2022/04/11 12:07:08;;;;;;;7.88;1.20;;;;;;;;;;4956883;28;20456;-35
2022/04/11 12:09:43;;;;;;;9.90;1.67;;;;;;;;;;4972726;28;20042;-35
2022/04/11 12:12:10;;;;;;;10.38;1.38;;;;;;;;;;4973871;28;20031;-35
2022/04/11 12:14:55;;;;;;;8.68;1.50;;;;;;;;;;4973289;28;20031;-35
2022/04/11 12:17:29;;;;;;;5.97;1.40;;;;;;;;;;4973300;28;20027;-36
2022/04/11 12:20:05;;;;;;;10.90;1.77;;;;;;;;;;4973991;28;20389;-35
2022/04/11 12:22:32;;;;;;;14.77;2.25;;;;;;;;;;4973347;28;20454;-36
2022/04/11 12:24:59;;;;;;;12.15;2.05;;;;;;;;;;4973202;28;20034;-34
2022/04/11 12:27:26;;;;;;;12.07;1.80;;;;;;;;;;4973954;28;20417;-34
2022/04/11 12:29:53;;;;;;;12.40;1.52;;;;;;;;;;4973625;28;20046;-34
2022/04/11 12:32:20;;;;;;;8.95;1.63;;;;;;;;;;4972918;28;20370;-34
2022/04/11 12:34:49;;;;;;;8.13;1.63;;;;;;;;;;4972854;28;20019;-34
2022/04/11 12:37:18;;;;;;;8.77;1.67;;;;;;;;;;4973161;28;20070;-33
2022/04/11 12:39:54;;;;;;;5.90;1.38;;;;;;;;;;4972840;28;20031;-34
2022/04/11 12:42:25;;;;;;;10.60;1.60;;;;;;;;;;4973589;28;20489;-34
2022/04/11 12:45:04;;;;;;;6.93;1.38;;;;;;;;;;4968396;28;20073;-35
2022/04/11 12:47:32;;;;;;;7.55;1.58;;;;;;;;;;4973556;28;20110;-35
2022/04/11 12:49:59;;;;;;;9.27;1.58;;;;;;;;;;4967949;28;20071;-32
2022/04/11 12:52:27;;;;;;;18.77;2.15;;;;;;;;;;4971655;28;20031;-31
2022/04/11 12:55:00;;;;;;;8.98;1.60;;;;;;;;;;4972802;28;20388;-32
2022/04/11 12:57:28;;;;;;;6.18;1.20;;;;;;;;;;4972127;28;20043;-32
2022/04/11 12:59:55;;;;;;;8.07;1.40;;;;;;;;;;4971879;28;20031;-32
2022/04/11 13:02:26;;;;;;;6.03;1.40;;;;;;;;;;4972032;28;20031;-33
2022/04/11 13:04:54;;;;;;;11.07;1.20;;;;;;;;;;4972595;28;20093;-32
2022/04/11 13:07:26;;;;;;;6.25;1.20;;;;;;;;;;4972004;28;20030;-33
2022/04/11 13:09:53;;;;;;;6.40;1.00;;;;;;;;;;4972278;28;20130;-32
2022/04/11 13:12:21;;;;;;;26.48;1.80;;;;;;;;;;4971869;28;20054;-33
2022/04/11 13:14:51;;;;;;;8.95;1.15;;;;;;;;;;4972171;28;20424;-33
2022/04/11 13:20:03;;;;;;;9.48;1.10;;;;;;;;;;4971901;28;20044;-34
2022/04/11 13:22:30;;;;;;;8.25;1.10;;;;;;;;;;4972340;28;20026;-34
2022/04/11 13:24:57;;;;;;;6.60;1.02;;;;;;;;;;4970320;28;20441;-34
2022/04/11 13:27:27;;;;;;;4.50;1.13;;;;;;;;;;4954316;28;20581;-34
2022/04/11 13:29:55;;;;;;;9.25;1.38;;;;;;;;;;4971450;28;20050;-34
2022/04/11 13:32:25;;;;;;;6.78;1.10;;;;;;;;;;4972397;28;20046;-34
2022/04/11 13:34:52;;;;;;;31.88;3.30;;;;;;;;;;4971020;28;20034;-31
2022/04/11 13:37:19;;;;;;;8.73;1.50;;;;;;;;;;4971425;28;20034;-32
2022/04/11 13:39:47;;;;;;;13.77;1.85;;;;;;;;;;4972072;28;20031;-32
2022/04/11 13:42:14;;;;;;;13.82;1.70;;;;;;;;;;4970281;28;20054;-32
2022/04/11 13:44:41;;;;;;;12.40;1.40;;;;;;;;;;4971258;28;20027;-33
2022/04/11 13:47:10;;;;;;;7.97;1.30;;;;;;;;;;4970856;28;20019;-32
2022/04/11 13:49:38;;;;;;;6.20;1.25;;;;;;;;;;4971801;28;20190;-31
2022/04/11 13:52:05;;;;;;;9.93;1.48;;;;;;;;;;4971466;28;20444;-32
2022/04/11 13:54:32;;;;;;;10.88;2.20;;;;;;;;;;4971576;28;20069;-31
2022/04/11 13:56:59;;;;;;;8.00;2.05;;;;;;;;;;4969981;28;20051;-32
2022/04/11 13:59:26;;;;;;;8.48;1.38;;;;;;;;;;4971223;28;20033;-34
2022/04/11 14:01:54;;;;;;;7.78;1.15;;;;;;;;;;4972549;28;20035;-35
2022/04/11 14:04:23;;;;;;;11.00;1.35;;;;;;;;;;4974966;28;20030;-33
2022/04/11 14:06:50;;;;;;;15.05;1.70;;;;;;;;;;4970087;28;20485;-34
2022/04/11 14:09:17;;;;;;;6.45;1.00;;;;;;;;;;4975094;28;20027;-34
2022/04/11 14:11:45;;;;;;;16.50;2.22;;;;;;;;;;4974442;28;20031;-32
2022/04/11 14:14:12;;;;;;;4.07;0.98;;;;;;;;;;4975245;28;20034;-32
2022/04/11 14:16:39;;;;;;;8.52;1.33;;;;;;;;;;4974181;28;20043;-33
2022/04/11 14:19:06;;;;;;;6.43;1.40;;;;;;;;;;4975302;28;20037;-34
2022/04/11 14:21:33;;;;;;;5.35;0.95;;;;;;;;;;4974392;28;20037;-33
2022/04/11 14:24:01;;;;;;;5.38;1.00;;;;;;;;;;4974887;28;20035;-33
2022/04/11 14:26:28;;;;;;;6.30;1.10;;;;;;;;;;4974812;28;20121;-32
2022/04/11 14:28:54;;;;;;;7.32;1.45;;;;;;;;;;4973419;28;20047;-32
2022/04/11 14:31:21;;;;;;;9.10;1.67;;;;;;;;;;4974489;28;20031;-33
2022/04/11 14:33:48;;;;;;;7.07;1.08;;;;;;;;;;4974734;28;20121;-34
2022/04/11 14:36:15;;;;;;;19.65;2.65;;;;;;;;;;4973801;28;20031;-33
2022/04/11 14:38:42;;;;;;;12.55;1.90;;;;;;;;;;4974128;28;20058;-32
2022/04/11 14:41:11;;;;;;;13.10;2.83;;;;;;;;;;4974085;28;20530;-32
2022/04/11 14:43:38;;;;;;;14.40;1.65;;;;;;;;;;4974432;28;20113;-32
2022/04/11 14:46:06;;;;;;;8.10;1.65;;;;;;;;;;4974456;28;20058;-32
2022/04/11 14:48:33;;;;;;;11.98;1.73;;;;;;;;;;4974097;28;20035;-32
2022/04/11 14:51:00;;;;;;;13.55;2.33;;;;;;;;;;4973847;28;20045;-32
2022/04/11 14:53:27;;;;;;;9.02;1.38;;;;;;;;;;4974162;28;20457;-33
2022/04/11 14:55:54;;;;;;;9.13;1.70;;;;;;;;;;4974637;28;20548;-33
2022/04/11 14:58:21;;;;;;;8.90;1.63;;;;;;;;;;4973201;28;20027;-34